Burlington, Iowa
Current Conditions -  °F | °C
As of 5:53 AM on Sunday 23 Nov 2014 (Local Time) from KBRL Reporting Station
Overcast Overcast  
Wind Chill: 50°   Ceiling: 6500
Heat Index: 50°   Visibility: 9mi
Dew Point: 48°   Wind: 8mph
Humidity: 93%   Direction: 160°SSE
Pressure: 29.66"   Gusts: NA
Location:  40.81°N, 91.1°W
Report Text: KBRL 231153Z AUTO 16007KT 9SM SCT037 BKN065 OVC100 10/09 A2966 RMK AO2 SLP042 T01000089 10117 20100 56015 $
Loading
Personal Weather Stations






























Interactive Weather Map New forecast layout! Learn more

10-Day Weather Forecast

Advertisements
Track Severe Weather on mobile